sensor_id;sensor_type;location;lat;lon;timestamp;P1;durP1;ratioP1;P2;durP2;ratioP2
17369;SDS011;8802;52.402;4.920;2022-12-24T00:02:21;24.15;;;5.18;;
17369;SDS011;8802;52.402;4.920;2022-12-24T00:04:48;22.05;;;4.68;;
17369;SDS011;8802;52.402;4.920;2022-12-24T00:07:15;21.52;;;4.80;;
17369;SDS011;8802;52.402;4.920;2022-12-24T00:09:43;29.95;;;4.93;;
17369;SDS011;8802;52.402;4.920;2022-12-24T00:12:10;25.27;;;5.30;;
17369;SDS011;8802;52.402;4.920;2022-12-24T00:14:36;24.83;;;4.35;;
17369;SDS011;8802;52.402;4.920;2022-12-24T00:17:03;23.75;;;5.10;;
17369;SDS011;8802;52.402;4.920;2022-12-24T00:19:30;22.05;;;4.85;;
17369;SDS011;8802;52.402;4.920;2022-12-24T00:21:57;24.90;;;5.07;;
17369;SDS011;8802;52.402;4.920;2022-12-24T00:24:24;25.55;;;4.75;;
17369;SDS011;8802;52.402;4.920;2022-12-24T00:26:52;29.33;;;5.13;;
17369;SDS011;8802;52.402;4.920;2022-12-24T00:29:19;29.50;;;4.82;;
17369;SDS011;8802;52.402;4.920;2022-12-24T00:31:45;27.73;;;4.97;;
17369;SDS011;8802;52.402;4.920;2022-12-24T00:34:12;21.05;;;4.30;;
17369;SDS011;8802;52.402;4.920;2022-12-24T00:36:39;25.48;;;4.63;;
17369;SDS011;8802;52.402;4.920;2022-12-24T00:39:06;26.17;;;4.88;;
17369;SDS011;8802;52.402;4.920;2022-12-24T00:41:33;21.90;;;4.75;;
17369;SDS011;8802;52.402;4.920;2022-12-24T00:44:02;23.65;;;4.47;;
17369;SDS011;8802;52.402;4.920;2022-12-24T00:46:31;19.08;;;4.35;;
17369;SDS011;8802;52.402;4.920;2022-12-24T00:48:59;25.48;;;4.55;;
17369;SDS011;8802;52.402;4.920;2022-12-24T00:51:26;22.88;;;4.60;;
17369;SDS011;8802;52.402;4.920;2022-12-24T00:53:54;23.45;;;5.18;;
17369;SDS011;8802;52.402;4.920;2022-12-24T00:56:21;30.65;;;4.72;;
17369;SDS011;8802;52.402;4.920;2022-12-24T00:58:48;24.05;;;4.72;;
17369;SDS011;8802;52.402;4.920;2022-12-24T01:01:17;24.30;;;5.30;;
17369;SDS011;8802;52.402;4.920;2022-12-24T01:03:44;27.83;;;4.93;;
17369;SDS011;8802;52.402;4.920;2022-12-24T01:06:11;23.80;;;5.13;;
17369;SDS011;8802;52.402;4.920;2022-12-24T01:08:39;24.60;;;4.70;;
17369;SDS011;8802;52.402;4.920;2022-12-24T01:11:06;24.23;;;4.65;;
17369;SDS011;8802;52.402;4.920;2022-12-24T01:13:34;22.02;;;4.32;;
17369;SDS011;8802;52.402;4.920;2022-12-24T01:16:02;25.02;;;4.80;;
17369;SDS011;8802;52.402;4.920;2022-12-24T01:18:39;19.38;;;4.43;;
17369;SDS011;8802;52.402;4.920;2022-12-24T01:21:06;21.55;;;4.57;;
17369;SDS011;8802;52.402;4.920;2022-12-24T01:23:33;22.48;;;4.70;;
17369;SDS011;8802;52.402;4.920;2022-12-24T01:26:00;27.80;;;4.70;;
17369;SDS011;8802;52.402;4.920;2022-12-24T01:28:28;25.85;;;4.53;;
17369;SDS011;8802;52.402;4.920;2022-12-24T01:30:55;28.90;;;5.53;;
17369;SDS011;8802;52.402;4.920;2022-12-24T01:33:22;23.13;;;5.45;;
17369;SDS011;8802;52.402;4.920;2022-12-24T01:35:50;21.42;;;5.60;;
17369;SDS011;8802;52.402;4.920;2022-12-24T01:38:17;24.92;;;4.40;;
17369;SDS011;8802;52.402;4.920;2022-12-24T01:40:43;19.85;;;4.43;;
17369;SDS011;8802;52.402;4.920;2022-12-24T01:43:29;25.98;;;5.30;;
17369;SDS011;8802;52.402;4.920;2022-12-24T01:45:57;23.80;;;4.85;;
17369;SDS011;8802;52.402;4.920;2022-12-24T01:48:36;18.88;;;4.10;;
17369;SDS011;8802;52.402;4.920;2022-12-24T01:51:11;21.40;;;4.63;;
17369;SDS011;8802;52.402;4.920;2022-12-24T01:53:44;22.23;;;4.10;;
17369;SDS011;8802;52.402;4.920;2022-12-24T01:56:14;29.08;;;4.80;;
17369;SDS011;8802;52.402;4.920;2022-12-24T01:58:42;31.92;;;5.20;;
17369;SDS011;8802;52.402;4.920;2022-12-24T02:01:13;25.88;;;4.95;;
17369;SDS011;8802;52.402;4.920;2022-12-24T02:03:40;19.38;;;4.35;;
17369;SDS011;8802;52.402;4.920;2022-12-24T02:06:08;27.90;;;5.20;;
17369;SDS011;8802;52.402;4.920;2022-12-24T02:08:40;31.15;;;7.60;;
17369;SDS011;8802;52.402;4.920;2022-12-24T02:11:08;26.65;;;5.30;;
17369;SDS011;8802;52.402;4.920;2022-12-24T02:13:36;27.90;;;5.00;;
17369;SDS011;8802;52.402;4.920;2022-12-24T02:16:06;25.83;;;5.20;;
17369;SDS011;8802;52.402;4.920;2022-12-24T02:18:41;21.67;;;4.93;;
17369;SDS011;8802;52.402;4.920;2022-12-24T02:27:10;34.50;;;5.15;;
17369;SDS011;8802;52.402;4.920;2022-12-24T02:32:32;27.95;;;4.97;;
17369;SDS011;8802;52.402;4.920;2022-12-24T02:35:08;24.20;;;5.35;;
17369;SDS011;8802;52.402;4.920;2022-12-24T02:37:38;22.10;;;4.45;;
17369;SDS011;8802;52.402;4.920;2022-12-24T02:40:10;23.40;;;5.45;;
17369;SDS011;8802;52.402;4.920;2022-12-24T02:42:41;21.55;;;4.68;;
17369;SDS011;8802;52.402;4.920;2022-12-24T02:45:13;22.05;;;4.93;;
17369;SDS011;8802;52.402;4.920;2022-12-24T02:47:43;28.27;;;5.50;;
17369;SDS011;8802;52.402;4.920;2022-12-24T02:50:12;29.30;;;5.60;;
17369;SDS011;8802;52.402;4.920;2022-12-24T02:52:41;23.10;;;5.15;;
17369;SDS011;8802;52.402;4.920;2022-12-24T02:55:10;28.40;;;5.55;;
17369;SDS011;8802;52.402;4.920;2022-12-24T02:57:45;24.65;;;4.97;;
17369;SDS011;8802;52.402;4.920;2022-12-24T03:00:28;27.25;;;5.38;;
17369;SDS011;8802;52.402;4.920;2022-12-24T03:03:08;23.95;;;4.95;;
17369;SDS011;8802;52.402;4.920;2022-12-24T03:05:50;23.33;;;4.47;;
17369;SDS011;8802;52.402;4.920;2022-12-24T03:08:24;30.40;;;5.20;;
17369;SDS011;8802;52.402;4.920;2022-12-24T03:11:03;26.60;;;4.80;;
17369;SDS011;8802;52.402;4.920;2022-12-24T03:13:33;30.80;;;5.47;;
17369;SDS011;8802;52.402;4.920;2022-12-24T03:18:32;22.38;;;4.70;;
17369;SDS011;8802;52.402;4.920;2022-12-24T03:20:59;22.08;;;5.13;;
17369;SDS011;8802;52.402;4.920;2022-12-24T03:23:31;18.27;;;4.35;;
17369;SDS011;8802;52.402;4.920;2022-12-24T03:25:59;21.52;;;4.68;;
17369;SDS011;8802;52.402;4.920;2022-12-24T03:28:29;28.15;;;4.85;;
17369;SDS011;8802;52.402;4.920;2022-12-24T03:30:59;22.77;;;4.72;;
17369;SDS011;8802;52.402;4.920;2022-12-24T03:33:29;25.83;;;4.43;;
17369;SDS011;8802;52.402;4.920;2022-12-24T03:35:56;25.73;;;4.63;;
17369;SDS011;8802;52.402;4.920;2022-12-24T03:38:23;22.63;;;4.45;;
17369;SDS011;8802;52.402;4.920;2022-12-24T03:40:50;22.73;;;4.78;;
17369;SDS011;8802;52.402;4.920;2022-12-24T03:43:17;24.50;;;4.85;;
17369;SDS011;8802;52.402;4.920;2022-12-24T03:45:44;31.63;;;4.90;;
17369;SDS011;8802;52.402;4.920;2022-12-24T03:48:11;25.95;;;4.97;;
17369;SDS011;8802;52.402;4.920;2022-12-24T03:50:39;22.65;;;4.38;;
17369;SDS011;8802;52.402;4.920;2022-12-24T03:53:06;22.98;;;4.68;;
17369;SDS011;8802;52.402;4.920;2022-12-24T03:55:33;21.08;;;4.53;;
17369;SDS011;8802;52.402;4.920;2022-12-24T03:57:59;26.33;;;4.70;;
17369;SDS011;8802;52.402;4.920;2022-12-24T04:00:26;23.27;;;4.25;;
17369;SDS011;8802;52.402;4.920;2022-12-24T04:02:53;19.23;;;3.88;;
17369;SDS011;8802;52.402;4.920;2022-12-24T04:05:20;25.10;;;4.72;;
17369;SDS011;8802;52.402;4.920;2022-12-24T04:07:48;21.30;;;4.35;;
17369;SDS011;8802;52.402;4.920;2022-12-24T04:10:15;21.48;;;4.03;;
17369;SDS011;8802;52.402;4.920;2022-12-24T04:12:42;21.20;;;3.75;;
17369;SDS011;8802;52.402;4.920;2022-12-24T04:15:09;21.98;;;4.10;;
17369;SDS011;8802;52.402;4.920;2022-12-24T04:17:36;19.30;;;5.13;;
17369;SDS011;8802;52.402;4.920;2022-12-24T04:20:03;30.35;;;5.35;;
17369;SDS011;8802;52.402;4.920;2022-12-24T04:22:31;18.58;;;3.70;;
17369;SDS011;8802;52.402;4.920;2022-12-24T04:24:59;24.50;;;4.35;;
17369;SDS011;8802;52.402;4.920;2022-12-24T04:27:26;24.48;;;4.53;;
17369;SDS011;8802;52.402;4.920;2022-12-24T04:29:55;24.00;;;4.35;;
17369;SDS011;8802;52.402;4.920;2022-12-24T04:32:21;20.02;;;4.25;;
17369;SDS011;8802;52.402;4.920;2022-12-24T04:34:49;19.55;;;4.40;;
17369;SDS011;8802;52.402;4.920;2022-12-24T04:37:16;21.30;;;4.00;;
17369;SDS011;8802;52.402;4.920;2022-12-24T04:39:43;26.95;;;4.65;;
17369;SDS011;8802;52.402;4.920;2022-12-24T04:42:11;24.73;;;4.20;;
17369;SDS011;8802;52.402;4.920;2022-12-24T04:44:38;18.15;;;3.33;;
17369;SDS011;8802;52.402;4.920;2022-12-24T04:47:05;21.55;;;4.57;;
17369;SDS011;8802;52.402;4.920;2022-12-24T04:49:32;22.70;;;4.18;;
17369;SDS011;8802;52.402;4.920;2022-12-24T04:51:58;23.50;;;4.45;;
17369;SDS011;8802;52.402;4.920;2022-12-24T04:54:25;19.55;;;4.15;;
17369;SDS011;8802;52.402;4.920;2022-12-24T04:56:52;24.02;;;4.07;;
17369;SDS011;8802;52.402;4.920;2022-12-24T04:59:20;17.50;;;4.18;;
17369;SDS011;8802;52.402;4.920;2022-12-24T05:01:47;20.23;;;3.90;;
17369;SDS011;8802;52.402;4.920;2022-12-24T05:04:14;25.17;;;4.45;;
17369;SDS011;8802;52.402;4.920;2022-12-24T05:06:41;19.40;;;4.10;;
17369;SDS011;8802;52.402;4.920;2022-12-24T05:09:08;24.33;;;4.50;;
17369;SDS011;8802;52.402;4.920;2022-12-24T05:11:35;25.50;;;4.68;;
17369;SDS011;8802;52.402;4.920;2022-12-24T05:14:01;25.55;;;4.63;;
17369;SDS011;8802;52.402;4.920;2022-12-24T05:16:30;19.02;;;4.30;;
17369;SDS011;8802;52.402;4.920;2022-12-24T05:18:56;24.63;;;5.00;;
17369;SDS011;8802;52.402;4.920;2022-12-24T05:21:23;19.80;;;4.38;;
17369;SDS011;8802;52.402;4.920;2022-12-24T05:23:51;20.83;;;3.95;;
17369;SDS011;8802;52.402;4.920;2022-12-24T05:26:36;27.70;;;5.10;;
17369;SDS011;8802;52.402;4.920;2022-12-24T05:29:06;24.38;;;3.97;;
17369;SDS011;8802;52.402;4.920;2022-12-24T05:31:37;27.48;;;4.20;;
17369;SDS011;8802;52.402;4.920;2022-12-24T05:34:05;21.17;;;4.03;;
17369;SDS011;8802;52.402;4.920;2022-12-24T05:36:32;22.92;;;4.47;;
17369;SDS011;8802;52.402;4.920;2022-12-24T05:38:59;24.70;;;4.40;;
17369;SDS011;8802;52.402;4.920;2022-12-24T05:41:26;22.45;;;4.28;;
17369;SDS011;8802;52.402;4.920;2022-12-24T05:43:53;22.48;;;5.15;;
17369;SDS011;8802;52.402;4.920;2022-12-24T05:46:20;27.10;;;5.18;;
17369;SDS011;8802;52.402;4.920;2022-12-24T05:48:50;24.60;;;5.47;;
17369;SDS011;8802;52.402;4.920;2022-12-24T05:51:18;24.98;;;4.38;;
17369;SDS011;8802;52.402;4.920;2022-12-24T05:53:46;19.48;;;4.35;;
17369;SDS011;8802;52.402;4.920;2022-12-24T05:56:14;20.85;;;4.10;;
17369;SDS011;8802;52.402;4.920;2022-12-24T05:58:43;29.38;;;4.75;;
17369;SDS011;8802;52.402;4.920;2022-12-24T06:01:10;22.40;;;4.63;;
17369;SDS011;8802;52.402;4.920;2022-12-24T06:03:38;22.90;;;4.15;;
17369;SDS011;8802;52.402;4.920;2022-12-24T06:06:07;21.42;;;4.45;;
17369;SDS011;8802;52.402;4.920;2022-12-24T06:08:35;23.63;;;4.72;;
17369;SDS011;8802;52.402;4.920;2022-12-24T06:11:04;29.55;;;5.57;;
17369;SDS011;8802;52.402;4.920;2022-12-24T06:13:32;21.70;;;4.22;;
17369;SDS011;8802;52.402;4.920;2022-12-24T06:16:01;25.10;;;4.68;;
17369;SDS011;8802;52.402;4.920;2022-12-24T06:18:29;23.88;;;5.07;;
17369;SDS011;8802;52.402;4.920;2022-12-24T06:20:56;27.63;;;5.03;;
17369;SDS011;8802;52.402;4.920;2022-12-24T06:23:25;26.30;;;5.57;;
17369;SDS011;8802;52.402;4.920;2022-12-24T06:25:54;22.38;;;4.80;;
17369;SDS011;8802;52.402;4.920;2022-12-24T06:28:22;24.48;;;4.47;;
17369;SDS011;8802;52.402;4.920;2022-12-24T06:30:49;26.40;;;4.57;;
17369;SDS011;8802;52.402;4.920;2022-12-24T06:33:16;29.33;;;6.07;;
17369;SDS011;8802;52.402;4.920;2022-12-24T06:35:43;23.50;;;4.88;;
17369;SDS011;8802;52.402;4.920;2022-12-24T06:38:11;22.98;;;4.15;;
17369;SDS011;8802;52.402;4.920;2022-12-24T06:40:40;21.33;;;4.38;;
17369;SDS011;8802;52.402;4.920;2022-12-24T06:43:08;22.88;;;4.75;;
17369;SDS011;8802;52.402;4.920;2022-12-24T06:45:35;26.27;;;4.63;;
17369;SDS011;8802;52.402;4.920;2022-12-24T06:48:02;27.13;;;5.10;;
17369;SDS011;8802;52.402;4.920;2022-12-24T06:50:31;21.92;;;4.40;;
17369;SDS011;8802;52.402;4.920;2022-12-24T06:52:58;24.92;;;4.53;;
17369;SDS011;8802;52.402;4.920;2022-12-24T06:55:25;27.95;;;5.00;;
17369;SDS011;8802;52.402;4.920;2022-12-24T06:57:53;26.10;;;4.57;;
17369;SDS011;8802;52.402;4.920;2022-12-24T07:00:20;33.05;;;4.88;;
17369;SDS011;8802;52.402;4.920;2022-12-24T07:02:47;24.48;;;4.85;;
17369;SDS011;8802;52.402;4.920;2022-12-24T07:05:14;25.55;;;5.20;;
17369;SDS011;8802;52.402;4.920;2022-12-24T07:07:41;27.77;;;5.18;;
17369;SDS011;8802;52.402;4.920;2022-12-24T07:10:09;22.30;;;4.57;;
17369;SDS011;8802;52.402;4.920;2022-12-24T07:12:37;23.20;;;5.47;;
17369;SDS011;8802;52.402;4.920;2022-12-24T07:15:06;22.92;;;4.80;;
17369;SDS011;8802;52.402;4.920;2022-12-24T07:17:33;23.45;;;5.00;;
17369;SDS011;8802;52.402;4.920;2022-12-24T07:20:00;28.98;;;5.53;;
17369;SDS011;8802;52.402;4.920;2022-12-24T07:22:27;23.77;;;4.93;;
17369;SDS011;8802;52.402;4.920;2022-12-24T07:24:54;27.40;;;4.32;;
17369;SDS011;8802;52.402;4.920;2022-12-24T07:27:21;22.75;;;5.60;;
17369;SDS011;8802;52.402;4.920;2022-12-24T07:29:48;31.20;;;5.80;;
17369;SDS011;8802;52.402;4.920;2022-12-24T07:32:16;25.52;;;4.80;;
17369;SDS011;8802;52.402;4.920;2022-12-24T07:34:44;23.40;;;5.00;;
17369;SDS011;8802;52.402;4.920;2022-12-24T07:37:11;22.00;;;4.40;;
17369;SDS011;8802;52.402;4.920;2022-12-24T07:39:38;23.60;;;4.97;;
17369;SDS011;8802;52.402;4.920;2022-12-24T07:42:04;27.90;;;5.45;;
17369;SDS011;8802;52.402;4.920;2022-12-24T07:44:32;34.00;;;6.18;;
17369;SDS011;8802;52.402;4.920;2022-12-24T07:46:59;26.98;;;5.20;;
17369;SDS011;8802;52.402;4.920;2022-12-24T07:49:27;23.02;;;4.70;;
17369;SDS011;8802;52.402;4.920;2022-12-24T07:51:54;24.00;;;4.55;;
17369;SDS011;8802;52.402;4.920;2022-12-24T07:54:21;22.27;;;4.50;;
17369;SDS011;8802;52.402;4.920;2022-12-24T07:56:48;23.77;;;4.72;;
17369;SDS011;8802;52.402;4.920;2022-12-24T07:59:15;27.60;;;5.72;;
17369;SDS011;8802;52.402;4.920;2022-12-24T08:01:42;25.23;;;5.05;;
17369;SDS011;8802;52.402;4.920;2022-12-24T08:04:09;29.88;;;4.97;;
17369;SDS011;8802;52.402;4.920;2022-12-24T08:06:37;25.77;;;5.53;;
17369;SDS011;8802;52.402;4.920;2022-12-24T08:09:05;20.92;;;4.65;;
17369;SDS011;8802;52.402;4.920;2022-12-24T08:11:32;24.02;;;4.47;;
17369;SDS011;8802;52.402;4.920;2022-12-24T08:13:58;21.63;;;4.80;;
17369;SDS011;8802;52.402;4.920;2022-12-24T08:16:25;28.13;;;5.68;;
17369;SDS011;8802;52.402;4.920;2022-12-24T08:18:52;25.58;;;5.57;;
17369;SDS011;8802;52.402;4.920;2022-12-24T08:21:19;30.20;;;5.20;;
17369;SDS011;8802;52.402;4.920;2022-12-24T08:23:47;24.38;;;5.38;;
17369;SDS011;8802;52.402;4.920;2022-12-24T08:26:14;26.10;;;4.95;;
17369;SDS011;8802;52.402;4.920;2022-12-24T08:28:43;19.25;;;4.20;;
17369;SDS011;8802;52.402;4.920;2022-12-24T08:31:09;31.92;;;5.07;;
17369;SDS011;8802;52.402;4.920;2022-12-24T08:33:36;25.48;;;5.20;;
17369;SDS011;8802;52.402;4.920;2022-12-24T08:36:03;19.83;;;4.60;;
17369;SDS011;8802;52.402;4.920;2022-12-24T08:38:31;28.90;;;5.50;;
17369;SDS011;8802;52.402;4.920;2022-12-24T08:40:59;27.73;;;6.45;;
17369;SDS011;8802;52.402;4.920;2022-12-24T08:43:26;22.98;;;5.13;;
17369;SDS011;8802;52.402;4.920;2022-12-24T08:45:53;22.50;;;4.85;;
17369;SDS011;8802;52.402;4.920;2022-12-24T08:48:20;24.83;;;4.50;;
17369;SDS011;8802;52.402;4.920;2022-12-24T08:50:46;26.40;;;5.10;;
17369;SDS011;8802;52.402;4.920;2022-12-24T08:53:13;25.80;;;4.65;;
17369;SDS011;8802;52.402;4.920;2022-12-24T08:55:40;29.15;;;4.88;;
17369;SDS011;8802;52.402;4.920;2022-12-24T08:58:08;18.98;;;4.55;;
17369;SDS011;8802;52.402;4.920;2022-12-24T09:00:35;20.50;;;4.43;;
17369;SDS011;8802;52.402;4.920;2022-12-24T09:03:02;24.98;;;4.68;;
17369;SDS011;8802;52.402;4.920;2022-12-24T09:05:29;28.25;;;5.53;;
17369;SDS011;8802;52.402;4.920;2022-12-24T09:07:56;26.85;;;5.32;;
17369;SDS011;8802;52.402;4.920;2022-12-24T09:10:23;28.02;;;5.63;;
17369;SDS011;8802;52.402;4.920;2022-12-24T09:12:50;23.15;;;4.43;;
17369;SDS011;8802;52.402;4.920;2022-12-24T09:15:18;21.63;;;4.75;;
17369;SDS011;8802;52.402;4.920;2022-12-24T09:17:45;27.08;;;5.10;;
17369;SDS011;8802;52.402;4.920;2022-12-24T09:20:12;26.20;;;5.13;;
17369;SDS011;8802;52.402;4.920;2022-12-24T09:22:39;24.00;;;4.47;;
17369;SDS011;8802;52.402;4.920;2022-12-24T09:25:06;27.67;;;4.75;;
17369;SDS011;8802;52.402;4.920;2022-12-24T09:27:34;27.80;;;5.43;;
17369;SDS011;8802;52.402;4.920;2022-12-24T09:30:02;29.60;;;4.93;;
17369;SDS011;8802;52.402;4.920;2022-12-24T09:32:31;26.05;;;4.88;;
17369;SDS011;8802;52.402;4.920;2022-12-24T09:34:59;30.20;;;5.40;;
17369;SDS011;8802;52.402;4.920;2022-12-24T09:37:25;25.83;;;4.80;;
17369;SDS011;8802;52.402;4.920;2022-12-24T09:39:52;22.38;;;4.40;;
17369;SDS011;8802;52.402;4.920;2022-12-24T09:42:22;25.08;;;4.65;;
17369;SDS011;8802;52.402;4.920;2022-12-24T09:44:59;24.00;;;4.45;;
17369;SDS011;8802;52.402;4.920;2022-12-24T09:47:34;21.08;;;4.68;;
17369;SDS011;8802;52.402;4.920;2022-12-24T09:50:08;24.83;;;5.15;;
17369;SDS011;8802;52.402;4.920;2022-12-24T09:52:51;26.45;;;5.35;;
17369;SDS011;8802;52.402;4.920;2022-12-24T09:55:20;25.13;;;4.93;;
17369;SDS011;8802;52.402;4.920;2022-12-24T09:57:52;24.23;;;4.63;;
17369;SDS011;8802;52.402;4.920;2022-12-24T10:00:21;24.27;;;4.85;;
17369;SDS011;8802;52.402;4.920;2022-12-24T10:02:52;25.42;;;5.45;;
17369;SDS011;8802;52.402;4.920;2022-12-24T10:05:22;23.00;;;4.57;;
17369;SDS011;8802;52.402;4.920;2022-12-24T10:08:00;26.75;;;5.07;;
17369;SDS011;8802;52.402;4.920;2022-12-24T10:10:34;26.95;;;5.13;;
17369;SDS011;8802;52.402;4.920;2022-12-24T10:13:09;30.67;;;5.80;;
17369;SDS011;8802;52.402;4.920;2022-12-24T10:15:43;18.73;;;4.38;;
17369;SDS011;8802;52.402;4.920;2022-12-24T10:18:19;18.63;;;4.80;;
17369;SDS011;8802;52.402;4.920;2022-12-24T10:20:52;23.23;;;4.60;;
17369;SDS011;8802;52.402;4.920;2022-12-24T10:23:27;21.35;;;4.18;;
17369;SDS011;8802;52.402;4.920;2022-12-24T10:26:03;24.02;;;4.47;;
17369;SDS011;8802;52.402;4.920;2022-12-24T10:28:37;19.50;;;4.30;;
17369;SDS011;8802;52.402;4.920;2022-12-24T10:31:11;19.15;;;3.97;;
17369;SDS011;8802;52.402;4.920;2022-12-24T10:33:41;16.65;;;4.00;;
17369;SDS011;8802;52.402;4.920;2022-12-24T10:36:09;22.92;;;3.92;;
17369;SDS011;8802;52.402;4.920;2022-12-24T10:38:41;16.10;;;3.65;;
17369;SDS011;8802;52.402;4.920;2022-12-24T10:41:08;23.58;;;4.25;;
17369;SDS011;8802;52.402;4.920;2022-12-24T10:43:35;19.98;;;3.70;;
17369;SDS011;8802;52.402;4.920;2022-12-24T10:46:07;19.67;;;4.10;;
17369;SDS011;8802;52.402;4.920;2022-12-24T10:48:45;17.15;;;3.90;;
17369;SDS011;8802;52.402;4.920;2022-12-24T10:51:19;21.98;;;3.90;;
17369;SDS011;8802;52.402;4.920;2022-12-24T10:53:51;16.83;;;4.32;;
17369;SDS011;8802;52.402;4.920;2022-12-24T10:56:22;21.52;;;4.28;;
17369;SDS011;8802;52.402;4.920;2022-12-24T10:58:50;16.42;;;3.70;;
17369;SDS011;8802;52.402;4.920;2022-12-24T11:01:18;16.80;;;3.83;;
17369;SDS011;8802;52.402;4.920;2022-12-24T11:03:50;22.65;;;4.82;;
17369;SDS011;8802;52.402;4.920;2022-12-24T11:06:25;23.00;;;4.55;;
17369;SDS011;8802;52.402;4.920;2022-12-24T11:08:52;19.63;;;3.92;;
17369;SDS011;8802;52.402;4.920;2022-12-24T11:11:19;20.80;;;3.85;;
17369;SDS011;8802;52.402;4.920;2022-12-24T11:13:51;20.10;;;3.58;;
17369;SDS011;8802;52.402;4.920;2022-12-24T11:16:22;15.95;;;3.30;;
17369;SDS011;8802;52.402;4.920;2022-12-24T11:18:54;26.30;;;4.28;;
17369;SDS011;8802;52.402;4.920;2022-12-24T11:21:24;22.92;;;4.43;;
17369;SDS011;8802;52.402;4.920;2022-12-24T11:23:54;26.55;;;4.78;;
17369;SDS011;8802;52.402;4.920;2022-12-24T11:26:23;20.85;;;4.55;;
17369;SDS011;8802;52.402;4.920;2022-12-24T11:29:02;23.55;;;4.07;;
17369;SDS011;8802;52.402;4.920;2022-12-24T11:31:31;19.17;;;4.22;;
17369;SDS011;8802;52.402;4.920;2022-12-24T11:34:03;19.67;;;3.95;;
17369;SDS011;8802;52.402;4.920;2022-12-24T11:36:46;16.02;;;3.67;;
17369;SDS011;8802;52.402;4.920;2022-12-24T11:39:16;18.48;;;3.40;;
17369;SDS011;8802;52.402;4.920;2022-12-24T11:41:45;16.48;;;3.05;;
17369;SDS011;8802;52.402;4.920;2022-12-24T11:44:12;12.40;;;2.85;;
17369;SDS011;8802;52.402;4.920;2022-12-24T11:46:40;16.33;;;3.10;;
17369;SDS011;8802;52.402;4.920;2022-12-24T11:49:21;18.30;;;3.80;;
17369;SDS011;8802;52.402;4.920;2022-12-24T11:52:08;22.00;;;4.10;;
17369;SDS011;8802;52.402;4.920;2022-12-24T11:54:58;13.75;;;3.13;;
17369;SDS011;8802;52.402;4.920;2022-12-24T11:57:45;14.35;;;3.10;;
17369;SDS011;8802;52.402;4.920;2022-12-24T12:00:17;17.33;;;3.67;;
17369;SDS011;8802;52.402;4.920;2022-12-24T12:02:45;20.15;;;3.92;;
17369;SDS011;8802;52.402;4.920;2022-12-24T12:05:17;19.70;;;3.95;;
17369;SDS011;8802;52.402;4.920;2022-12-24T12:07:49;13.93;;;3.53;;
17369;SDS011;8802;52.402;4.920;2022-12-24T12:10:18;12.18;;;2.97;;
17369;SDS011;8802;52.402;4.920;2022-12-24T12:12:49;16.85;;;3.15;;
17369;SDS011;8802;52.402;4.920;2022-12-24T12:15:23;15.07;;;3.53;;
17369;SDS011;8802;52.402;4.920;2022-12-24T12:17:53;16.00;;;3.65;;
17369;SDS011;8802;52.402;4.920;2022-12-24T12:20:28;14.98;;;3.55;;
17369;SDS011;8802;52.402;4.920;2022-12-24T12:22:59;18.60;;;3.80;;
17369;SDS011;8802;52.402;4.920;2022-12-24T12:25:32;20.13;;;3.70;;
17369;SDS011;8802;52.402;4.920;2022-12-24T12:28:06;18.33;;;3.72;;
17369;SDS011;8802;52.402;4.920;2022-12-24T12:30:41;19.08;;;3.80;;
17369;SDS011;8802;52.402;4.920;2022-12-24T12:33:11;15.48;;;3.30;;
17369;SDS011;8802;52.402;4.920;2022-12-24T12:35:46;20.20;;;3.42;;
17369;SDS011;8802;52.402;4.920;2022-12-24T12:38:15;17.10;;;3.30;;
17369;SDS011;8802;52.402;4.920;2022-12-24T12:40:53;21.30;;;4.28;;
17369;SDS011;8802;52.402;4.920;2022-12-24T12:43:38;18.23;;;3.40;;
17369;SDS011;8802;52.402;4.920;2022-12-24T12:46:17;19.33;;;3.42;;
17369;SDS011;8802;52.402;4.920;2022-12-24T12:48:53;20.45;;;3.70;;
17369;SDS011;8802;52.402;4.920;2022-12-24T12:51:34;11.35;;;3.22;;
17369;SDS011;8802;52.402;4.920;2022-12-24T12:54:11;17.52;;;3.33;;
17369;SDS011;8802;52.402;4.920;2022-12-24T12:56:48;19.77;;;4.40;;
17369;SDS011;8802;52.402;4.920;2022-12-24T12:59:18;14.30;;;3.08;;
17369;SDS011;8802;52.402;4.920;2022-12-24T13:01:54;18.45;;;3.42;;
17369;SDS011;8802;52.402;4.920;2022-12-24T13:04:43;14.88;;;3.20;;
17369;SDS011;8802;52.402;4.920;2022-12-24T13:08:01;17.92;;;3.47;;
17369;SDS011;8802;52.402;4.920;2022-12-24T13:10:52;18.75;;;3.05;;
17369;SDS011;8802;52.402;4.920;2022-12-24T13:19:32;20.30;;;3.10;;
17369;SDS011;8802;52.402;4.920;2022-12-24T13:22:12;17.95;;;3.92;;
17369;SDS011;8802;52.402;4.920;2022-12-24T13:24:42;19.73;;;4.30;;
17369;SDS011;8802;52.402;4.920;2022-12-24T13:27:14;21.15;;;3.78;;
17369;SDS011;8802;52.402;4.920;2022-12-24T13:29:44;17.25;;;4.15;;
17369;SDS011;8802;52.402;4.920;2022-12-24T13:32:45;23.38;;;4.07;;
17369;SDS011;8802;52.402;4.920;2022-12-24T13:35:27;17.95;;;3.38;;
17369;SDS011;8802;52.402;4.920;2022-12-24T13:44:15;19.90;;;3.67;;
17369;SDS011;8802;52.402;4.920;2022-12-24T13:46:45;16.65;;;3.08;;
17369;SDS011;8802;52.402;4.920;2022-12-24T13:49:15;19.77;;;4.50;;
17369;SDS011;8802;52.402;4.920;2022-12-24T13:51:44;15.13;;;3.83;;
17369;SDS011;8802;52.402;4.920;2022-12-24T13:54:12;15.90;;;3.95;;
17369;SDS011;8802;52.402;4.920;2022-12-24T13:56:41;18.92;;;3.78;;
17369;SDS011;8802;52.402;4.920;2022-12-24T13:59:09;16.73;;;3.72;;
17369;SDS011;8802;52.402;4.920;2022-12-24T14:01:44;15.70;;;3.67;;
17369;SDS011;8802;52.402;4.920;2022-12-24T14:04:19;16.70;;;3.83;;
17369;SDS011;8802;52.402;4.920;2022-12-24T14:06:49;20.13;;;4.47;;
17369;SDS011;8802;52.402;4.920;2022-12-24T14:09:18;17.38;;;4.28;;
17369;SDS011;8802;52.402;4.920;2022-12-24T14:14:55;17.70;;;3.72;;
17369;SDS011;8802;52.402;4.920;2022-12-24T14:17:22;14.32;;;3.20;;
17369;SDS011;8802;52.402;4.920;2022-12-24T14:19:51;13.40;;;3.60;;
17369;SDS011;8802;52.402;4.920;2022-12-24T14:22:24;15.43;;;3.33;;
17369;SDS011;8802;52.402;4.920;2022-12-24T14:24:55;22.67;;;3.83;;
17369;SDS011;8802;52.402;4.920;2022-12-24T14:27:27;15.10;;;3.28;;
17369;SDS011;8802;52.402;4.920;2022-12-24T14:29:59;21.90;;;3.58;;
17369;SDS011;8802;52.402;4.920;2022-12-24T14:32:33;16.50;;;3.72;;
17369;SDS011;8802;52.402;4.920;2022-12-24T14:35:05;14.55;;;3.33;;
17369;SDS011;8802;52.402;4.920;2022-12-24T14:37:34;19.27;;;3.22;;
17369;SDS011;8802;52.402;4.920;2022-12-24T14:40:01;15.20;;;3.20;;
17369;SDS011;8802;52.402;4.920;2022-12-24T14:42:33;15.20;;;3.38;;
17369;SDS011;8802;52.402;4.920;2022-12-24T14:45:11;15.13;;;3.58;;
17369;SDS011;8802;52.402;4.920;2022-12-24T14:47:45;14.30;;;3.42;;
17369;SDS011;8802;52.402;4.920;2022-12-24T14:50:26;16.15;;;3.40;;
17369;SDS011;8802;52.402;4.920;2022-12-24T14:53:10;23.10;;;3.60;;
17369;SDS011;8802;52.402;4.920;2022-12-24T14:55:45;14.10;;;3.30;;
17369;SDS011;8802;52.402;4.920;2022-12-24T14:58:18;19.80;;;4.40;;
17369;SDS011;8802;52.402;4.920;2022-12-24T15:00:49;19.80;;;4.78;;
17369;SDS011;8802;52.402;4.920;2022-12-24T15:03:17;19.48;;;4.93;;
17369;SDS011;8802;52.402;4.920;2022-12-24T15:05:48;17.00;;;3.88;;
17369;SDS011;8802;52.402;4.920;2022-12-24T15:08:18;14.60;;;4.25;;
17369;SDS011;8802;52.402;4.920;2022-12-24T15:10:49;17.13;;;4.63;;
17369;SDS011;8802;52.402;4.920;2022-12-24T15:13:23;19.27;;;5.70;;
17369;SDS011;8802;52.402;4.920;2022-12-24T15:15:54;16.80;;;3.70;;
17369;SDS011;8802;52.402;4.920;2022-12-24T15:18:23;16.90;;;4.40;;
17369;SDS011;8802;52.402;4.920;2022-12-24T15:20:54;19.13;;;4.50;;
17369;SDS011;8802;52.402;4.920;2022-12-24T15:23:25;16.77;;;3.88;;
17369;SDS011;8802;52.402;4.920;2022-12-24T15:26:04;14.27;;;3.92;;
17369;SDS011;8802;52.402;4.920;2022-12-24T15:28:35;21.95;;;4.28;;
17369;SDS011;8802;52.402;4.920;2022-12-24T15:31:04;14.27;;;4.00;;
17369;SDS011;8802;52.402;4.920;2022-12-24T15:33:34;16.67;;;3.85;;